Decoded Metar for PWAK (WAKE ISLAND AIRF in _UNIDENTIFIED) (IATA:N/A) | Meteo·Mobile Aviation Weather
aviador You're here:

PWAK Decoded Metar

WAKE ISLAND AIRF in _UNIDENTIFIED
Report Time2019-05-22 07:29:00
UTC Time2019-05-22 07:50:50
Flight Rules vfr VFR
Wind020° at 11 kt
W.Decomp.*RWY 10: 0.6 kt HW 11 kt LCW
Visibility9999 m
Phenomena:N/A
Clouds:Scattered 023 Hf
Expected CloudBase > 1,200 ft AGL from Temp-Dew spread
CeilingNone
Temp27°C (ISA +12)
Dew Point24°C (84% RH)
Heat Index30.1°C
QNH1013 hPa
Density Alt1,791 ft
Elevation13 ft
Report Wrong Elevation
Raw Report
PWAK 220729Z AUTO 02011KT 9999 SCT023 27/24 A2990 RMK AO2 SLP131=

Extra information for PWAK:More info

Metar Taf Metar & Taf Last 4 Metars F.Rules Stats Wind Profile Meteogram Temp Stats Airport Information Weather charts Add Link Nearby VenuesMetar ALERT Operation Metar Decoded Social comments